createdAt,value
2023-02-16T00:00:46.294Z,6.80
2023-02-16T00:05:48.164Z,6.73
2023-02-16T00:11:09.678Z,6.62
2023-02-16T00:16:13.284Z,6.63
2023-02-16T00:21:15.200Z,6.68
2023-02-16T00:26:19.290Z,6.61
2023-02-16T00:31:23.313Z,6.59
2023-02-16T00:36:25.739Z,6.43
2023-02-16T00:41:51.801Z,6.46
2023-02-16T00:46:53.520Z,6.46
2023-02-16T00:51:55.235Z,6.43
2023-02-16T00:56:58.243Z,6.30
2023-02-16T01:01:59.903Z,6.29
2023-02-16T01:07:20.155Z,6.36
2023-02-16T01:12:23.194Z,6.29
2023-02-16T01:17:25.021Z,6.26
2023-02-16T01:22:33.311Z,6.19
2023-02-16T01:27:37.241Z,6.29
2023-02-16T01:32:39.006Z,6.30
2023-02-16T01:37:42.600Z,6.28
2023-02-16T01:42:47.994Z,6.27
2023-02-16T01:47:51.551Z,6.20
2023-02-16T01:52:54.821Z,6.20
2023-02-16T01:57:59.680Z,5.96
2023-02-16T02:03:20.456Z,6.19
2023-02-16T02:08:25.450Z,6.15
2023-02-16T02:13:29.414Z,6.10
2023-02-16T02:18:31.348Z,6.13
2023-02-16T02:23:45.095Z,6.19
2023-02-16T02:28:51.698Z,6.13
2023-02-16T02:34:01.898Z,6.08
2023-02-16T02:39:10.113Z,6.07
2023-02-16T02:44:13.288Z,6.00
2023-02-16T02:49:15.444Z,5.94
2023-02-16T02:54:38.753Z,5.94
2023-02-16T03:00:06.042Z,5.89
2023-02-16T03:05:08.505Z,5.79
2023-02-16T03:10:29.923Z,5.67
2023-02-16T03:15:33.014Z,5.67
2023-02-16T03:20:53.346Z,5.52
2023-02-16T03:26:13.702Z,5.55
2023-02-16T03:31:20.409Z,5.63
2023-02-16T03:36:22.293Z,5.63
2023-02-16T03:41:24.088Z,5.61
2023-02-16T03:46:27.181Z,5.52
2023-02-16T03:51:28.868Z,5.43
2023-02-16T03:56:30.585Z,5.41
2023-02-16T04:01:33.665Z,5.38
2023-02-16T04:06:35.347Z,5.25
2023-02-16T04:11:55.570Z,5.22
2023-02-16T04:16:58.593Z,5.19
2023-02-16T04:22:00.310Z,5.22
2023-02-16T04:27:02.017Z,5.10
2023-02-16T04:32:05.191Z,4.97
2023-02-16T04:37:06.985Z,5.07
2023-02-16T04:42:08.672Z,5.17
2023-02-16T04:47:11.761Z,5.21
2023-02-16T04:52:13.659Z,5.11
2023-02-16T04:57:15.642Z,5.19
2023-02-16T05:02:18.709Z,5.17
2023-02-16T05:07:20.377Z,5.07
2023-02-16T05:12:40.944Z,5.02
2023-02-16T05:17:44.023Z,4.94
2023-02-16T05:22:46.283Z,5.01
2023-02-16T05:27:48.008Z,4.83
2023-02-16T05:32:51.049Z,4.98
2023-02-16T05:37:52.733Z,5.02
2023-02-16T05:42:54.433Z,5.02
2023-02-16T05:47:57.529Z,4.90
2023-02-16T05:52:59.626Z,4.84
2023-02-16T05:58:01.397Z,4.81
2023-02-16T06:03:04.499Z,4.75
2023-02-16T06:08:06.171Z,5.00
2023-02-16T06:13:07.823Z,5.20
2023-02-16T06:18:11.376Z,4.98
2023-02-16T06:23:13.247Z,4.99
2023-02-16T06:28:14.919Z,5.10
2023-02-16T06:33:17.948Z,5.15
2023-02-16T06:38:19.629Z,5.20
2023-02-16T06:43:21.423Z,5.24
2023-02-16T06:48:24.502Z,5.37
2023-02-16T06:53:44.884Z,5.39
2023-02-16T06:58:46.566Z,5.54
2023-02-16T07:03:49.985Z,5.62
2023-02-16T07:08:51.630Z,5.70
2023-02-16T07:14:11.866Z,5.95
2023-02-16T07:19:14.903Z,6.14
2023-02-16T07:24:16.878Z,6.06
2023-02-16T07:29:18.820Z,6.14
2023-02-16T07:34:22.136Z,6.15
2023-02-16T07:39:23.970Z,6.03
2023-02-16T07:44:26.010Z,6.16
2023-02-16T07:49:29.038Z,6.42
2023-02-16T07:54:31.190Z,6.75
2023-02-16T07:59:32.831Z,7.04
2023-02-16T08:04:35.893Z,7.04
2023-02-16T08:09:37.606Z,7.74
2023-02-16T08:14:39.532Z,10.32
2023-02-16T08:19:42.620Z,13.27
2023-02-16T08:24:44.324Z,15.27
2023-02-16T08:29:46.037Z,16.20
2023-02-16T08:34:49.694Z,19.03
2023-02-16T08:39:51.928Z,19.11
2023-02-16T08:44:54.523Z,20.18
2023-02-16T08:49:57.569Z,21.42
2023-02-16T08:54:59.273Z,23.58
2023-02-16T09:00:20.085Z,22.75
2023-02-16T09:05:23.186Z,23.31
2023-02-16T09:10:24.998Z,23.17
2023-02-16T09:15:26.733Z,23.35
2023-02-16T09:20:29.744Z,24.05
2023-02-16T09:25:33.859Z,24.70
2023-02-16T09:30:38.094Z,26.00
2023-02-16T09:35:41.130Z,26.70
2023-02-16T09:40:42.798Z,25.56
2023-02-16T09:45:47.571Z,24.84
2023-02-16T09:50:54.378Z,24.76
2023-02-16T09:56:03.162Z,25.70
2023-02-16T10:01:08.497Z,21.84
2023-02-16T10:06:25.029Z,18.29
2023-02-16T10:11:45.565Z,16.91
2023-02-16T10:16:51.680Z,16.02
2023-02-16T10:21:56.433Z,15.17
2023-02-16T10:27:02.180Z,14.54
2023-02-16T10:32:11.654Z,13.59
2023-02-16T10:37:35.282Z,12.89
2023-02-16T10:42:41.815Z,13.07
2023-02-16T10:47:44.060Z,13.13
2023-02-16T10:52:47.061Z,12.68
2023-02-16T10:57:54.287Z,12.42
2023-02-16T11:02:55.987Z,11.89
2023-02-16T11:08:02.810Z,11.54
2023-02-16T11:13:04.495Z,11.27
2023-02-16T11:18:08.075Z,10.99
2023-02-16T11:23:15.400Z,10.83
2023-02-16T11:28:17.072Z,10.53
2023-02-16T11:33:20.931Z,10.59
2023-02-16T11:38:31.476Z,10.52
2023-02-16T11:43:35.197Z,10.58
2023-02-16T11:48:37.971Z,10.71
2023-02-16T11:53:42.512Z,10.98
2023-02-16T11:58:45.005Z,11.25
2023-02-16T12:03:59.967Z,11.60
2023-02-16T12:09:13.210Z,11.87
2023-02-16T12:14:22.366Z,11.79
2023-02-16T12:19:30.452Z,11.98
2023-02-16T12:24:40.410Z,12.24
2023-02-16T12:29:44.933Z,12.46
2023-02-16T12:34:54.059Z,12.39
2023-02-16T12:40:00.448Z,12.08
2023-02-16T12:45:04.375Z,12.01
2023-02-16T12:50:07.929Z,11.78
2023-02-16T12:55:18.902Z,11.55
2023-02-16T13:00:23.997Z,11.43
2023-02-16T13:05:28.420Z,11.24
2023-02-16T13:10:33.549Z,11.12
2023-02-16T13:15:37.061Z,11.11
2023-02-16T13:20:39.061Z,11.12
2023-02-16T13:25:53.272Z,11.29
2023-02-16T13:31:15.236Z,11.33
2023-02-16T13:36:29.498Z,11.26
2023-02-16T13:41:42.176Z,11.27
2023-02-16T13:46:46.650Z,11.40
2023-02-16T13:51:48.333Z,11.54
2023-02-16T13:56:51.477Z,11.56
2023-02-16T14:01:54.260Z,11.64
2023-02-16T14:07:20.464Z,11.63
2023-02-16T14:12:26.717Z,11.56
2023-02-16T14:17:30.385Z,11.51
2023-02-16T14:22:35.255Z,11.43
2023-02-16T14:27:43.806Z,11.43
2023-02-16T14:32:46.422Z,11.45
2023-02-16T14:37:53.246Z,11.51
2023-02-16T14:42:57.784Z,11.48
2023-02-16T14:48:05.131Z,11.30
2023-02-16T14:53:21.589Z,11.44
2023-02-16T14:58:29.162Z,11.25
2023-02-16T15:03:39.720Z,11.16
2023-02-16T15:08:48.609Z,10.98
2023-02-16T15:13:53.350Z,10.89
2023-02-16T15:18:55.846Z,10.88
2023-02-16T15:23:58.313Z,10.78
2023-02-16T15:29:02.266Z,10.79
2023-02-16T15:34:05.631Z,10.87
2023-02-16T15:39:07.930Z,10.81
2023-02-16T15:44:27.830Z,10.87
2023-02-16T15:49:34.718Z,10.69
2023-02-16T15:54:37.026Z,10.54
2023-02-16T15:59:41.067Z,10.56
2023-02-16T16:04:43.830Z,10.52
2023-02-16T16:09:45.894Z,10.57
2023-02-16T16:14:51.481Z,10.60
2023-02-16T16:19:53.170Z,10.58
2023-02-16T16:24:54.887Z,10.53
2023-02-16T16:30:15.345Z,10.49
2023-02-16T16:35:21.330Z,10.42
2023-02-16T16:40:25.402Z,10.32
2023-02-16T16:45:36.348Z,10.17
2023-02-16T16:50:39.792Z,10.27
2023-02-16T16:55:41.638Z,10.23
2023-02-16T17:00:44.741Z,10.30
2023-02-16T17:05:46.575Z,10.28
2023-02-16T17:10:48.329Z,10.24
2023-02-16T17:15:53.990Z,10.24
2023-02-16T17:20:55.672Z,10.28
2023-02-16T17:25:57.395Z,10.28
2023-02-16T17:31:00.464Z,10.24
2023-02-16T17:36:03.074Z,10.17
2023-02-16T17:41:05.089Z,10.05
2023-02-16T17:46:08.378Z,10.15
2023-02-16T17:51:13.606Z,10.08
2023-02-16T17:56:16.443Z,10.13
2023-02-16T18:01:19.872Z,10.25
2023-02-16T18:06:24.405Z,10.18
2023-02-16T18:11:26.224Z,10.29
2023-02-16T18:16:29.283Z,10.22
2023-02-16T18:21:31.075Z,10.16
2023-02-16T18:26:33.693Z,10.09
2023-02-16T18:31:36.762Z,10.06
2023-02-16T18:36:38.673Z,9.91
2023-02-16T18:41:40.348Z,9.88
2023-02-16T18:46:43.454Z,9.86
2023-02-16T18:51:45.337Z,9.69
2023-02-16T18:56:47.731Z,9.66
2023-02-16T19:01:56.069Z,9.60
2023-02-16T19:06:58.417Z,9.58
2023-02-16T19:12:00.057Z,9.62
2023-02-16T19:17:03.280Z,9.63
2023-02-16T19:22:05.080Z,9.66
2023-02-16T19:27:06.788Z,9.72
2023-02-16T19:32:09.848Z,9.70
2023-02-16T19:37:11.606Z,9.78
2023-02-16T19:42:13.351Z,9.82
2023-02-16T19:47:16.462Z,9.78
2023-02-16T19:52:18.204Z,9.76
2023-02-16T19:57:19.956Z,9.68
2023-02-16T20:02:23.103Z,9.66
2023-02-16T20:07:25.009Z,9.69
2023-02-16T20:12:28.510Z,9.67
2023-02-16T20:17:31.528Z,9.68
2023-02-16T20:22:33.277Z,9.66
2023-02-16T20:27:35.042Z,9.69
2023-02-16T20:32:38.260Z,9.67
2023-02-16T20:37:39.995Z,9.72
2023-02-16T20:42:41.778Z,9.76
2023-02-16T20:47:44.927Z,9.67
2023-02-16T20:52:46.755Z,9.68
2023-02-16T20:57:48.464Z,9.47
2023-02-16T21:02:51.717Z,9.48
2023-02-16T21:07:53.514Z,9.70
2023-02-16T21:12:55.835Z,9.63
2023-02-16T21:17:59.216Z,9.66
2023-02-16T21:23:03.499Z,9.65
2023-02-16T21:28:05.221Z,9.65
2023-02-16T21:33:08.262Z,9.69
2023-02-16T21:38:09.946Z,9.57
2023-02-16T21:43:12.100Z,9.50
2023-02-16T21:48:33.501Z,9.44
2023-02-16T21:53:35.271Z,9.47
2023-02-16T21:58:36.949Z,9.45
2023-02-16T22:03:40.063Z,9.52
2023-02-16T22:08:41.841Z,9.63
2023-02-16T22:13:43.656Z,9.78
2023-02-16T22:18:46.744Z,9.70
2023-02-16T22:23:48.422Z,9.54
2023-02-16T22:28:50.494Z,9.66
2023-02-16T22:33:56.207Z,9.60
2023-02-16T22:38:58.015Z,9.67
2023-02-16T22:44:00.000Z,9.68
2023-02-16T22:49:03.088Z,9.57
2023-02-16T22:54:04.971Z,9.64
2023-02-16T22:59:06.931Z,9.69
2023-02-16T23:04:13.135Z,9.54
2023-02-16T23:09:16.099Z,9.59
2023-02-16T23:14:18.088Z,9.60
2023-02-16T23:19:24.121Z,9.56
2023-02-16T23:24:25.953Z,9.50
2023-02-16T23:29:27.770Z,9.47
2023-02-16T23:34:30.786Z,9.41
2023-02-16T23:39:32.446Z,9.50
2023-02-16T23:44:34.430Z,9.48
2023-02-16T23:49:37.434Z,9.49
2023-02-16T23:54:39.117Z,9.49
2023-02-16T23:59:41.572Z,9.55
